createdAt,value
2019-02-18T00:00:13.315Z,96.97
2019-02-18T00:01:13.260Z,96.78
2019-02-18T00:02:13.182Z,95.55
2019-02-18T00:03:13.113Z,95.88
2019-02-18T00:04:13.045Z,96.35
2019-02-18T00:05:12.978Z,96.54
2019-02-18T00:06:12.908Z,96.73
2019-02-18T00:07:14.702Z,96.73
2019-02-18T00:08:12.771Z,97.02
2019-02-18T00:09:12.722Z,97.11
2019-02-18T00:10:12.636Z,97.39
2019-02-18T00:11:12.577Z,97.49
2019-02-18T00:12:12.501Z,97.77
2019-02-18T00:13:12.431Z,97.49
2019-02-18T00:14:12.371Z,97.77
2019-02-18T00:15:12.293Z,97.11
2019-02-18T00:16:12.228Z,97.49
2019-02-18T00:17:12.167Z,97.77
2019-02-18T00:18:12.090Z,98.34
2019-02-18T00:19:12.032Z,98.63
2019-02-18T00:20:11.960Z,98.72
2019-02-18T00:21:11.938Z,98.15
2019-02-18T00:22:11.826Z,98.53
2019-02-18T00:23:11.757Z,98.72
2019-02-18T00:24:11.684Z,98.63
2019-02-18T00:25:11.615Z,98.15
2019-02-18T00:26:11.545Z,98.53
2019-02-18T00:27:11.481Z,98.34
2019-02-18T00:28:11.417Z,98.72
2019-02-18T00:29:11.350Z,98.63
2019-02-18T00:30:11.298Z,99.29
2019-02-18T00:31:11.226Z,98.91
2019-02-18T00:32:11.140Z,99.10
2019-02-18T00:33:11.073Z,99.29
2019-02-18T00:34:11.004Z,98.72
2019-02-18T00:35:10.935Z,99.10
2019-02-18T00:36:10.867Z,98.72
2019-02-18T00:37:10.801Z,99.01
2019-02-18T00:38:10.748Z,99.19
2019-02-18T00:39:10.659Z,99.10
2019-02-18T00:40:10.590Z,98.72
2019-02-18T00:41:10.526Z,98.72
2019-02-18T00:42:10.455Z,98.34
2019-02-18T00:43:10.389Z,97.87
2019-02-18T00:44:10.330Z,98.15
2019-02-18T00:45:10.261Z,97.96
2019-02-18T00:46:10.199Z,97.02
2019-02-18T00:47:10.120Z,97.11
2019-02-18T00:48:10.049Z,97.11
2019-02-18T00:49:09.982Z,96.83
2019-02-18T00:50:09.929Z,96.26
2019-02-18T00:51:09.842Z,96.35
2019-02-18T00:52:09.837Z,96.07
2019-02-18T00:53:09.711Z,95.97
2019-02-18T00:54:09.653Z,95.59
2019-02-18T00:55:09.565Z,96.16
2019-02-18T00:56:09.502Z,96.16
2019-02-18T00:57:09.433Z,96.35
2019-02-18T00:58:09.367Z,96.64
2019-02-18T00:59:09.307Z,96.07
2019-02-18T01:00:09.249Z,96.26
2019-02-18T01:01:09.175Z,96.45
2019-02-18T01:02:09.093Z,96.26
2019-02-18T01:03:09.026Z,95.88
2019-02-18T01:04:08.956Z,95.97
2019-02-18T01:05:08.894Z,95.88
2019-02-18T01:06:08.819Z,95.97
2019-02-18T01:07:08.753Z,95.78
2019-02-18T01:08:08.683Z,95.78
2019-02-18T01:09:08.622Z,95.59
2019-02-18T01:10:08.544Z,96.35
2019-02-18T01:11:08.481Z,95.59
2019-02-18T01:12:08.409Z,95.69
2019-02-18T01:13:08.354Z,95.69
2019-02-18T01:14:08.281Z,95.03
2019-02-18T01:15:08.264Z,95.12
2019-02-18T01:16:08.142Z,95.40
2019-02-18T01:17:08.074Z,95.40
2019-02-18T01:18:08.004Z,95.31
2019-02-18T01:19:07.933Z,94.65
2019-02-18T01:20:07.865Z,94.46
2019-02-18T01:21:07.799Z,94.18
2019-02-18T01:22:07.731Z,94.56
2019-02-18T01:23:07.687Z,94.84
2019-02-18T01:24:07.600Z,95.40
2019-02-18T01:25:07.530Z,95.31
2019-02-18T01:26:07.455Z,95.40
2019-02-18T01:27:07.388Z,96.07
2019-02-18T01:28:07.321Z,96.64
2019-02-18T01:29:07.252Z,96.35
2019-02-18T01:30:07.182Z,96.92
2019-02-18T01:31:07.114Z,96.54
2019-02-18T01:32:07.047Z,97.11
2019-02-18T01:33:06.982Z,97.11
2019-02-18T01:34:06.904Z,96.64
2019-02-18T01:35:06.844Z,96.64
2019-02-18T01:36:06.775Z,96.54
2019-02-18T01:37:06.703Z,97.11
2019-02-18T01:38:06.637Z,97.11
2019-02-18T01:39:06.565Z,97.02
2019-02-18T01:40:06.498Z,96.64
2019-02-18T01:41:06.430Z,96.64
2019-02-18T01:42:06.364Z,96.73
2019-02-18T01:43:06.299Z,97.49
2019-02-18T01:44:06.221Z,97.11
2019-02-18T01:45:06.158Z,97.49
2019-02-18T01:46:06.093Z,97.20
2019-02-18T01:47:06.022Z,97.77
2019-02-18T01:48:05.960Z,97.87
2019-02-18T01:49:05.896Z,97.58
2019-02-18T01:50:05.828Z,97.96
2019-02-18T01:51:05.752Z,97.68
2019-02-18T01:52:05.681Z,97.49
2019-02-18T01:53:05.613Z,97.77
2019-02-18T01:54:05.543Z,97.68
2019-02-18T01:55:05.476Z,97.30
2019-02-18T01:56:05.406Z,97.96
2019-02-18T01:57:05.339Z,97.68
2019-02-18T01:58:05.277Z,97.77
2019-02-18T01:59:05.201Z,98.34
2019-02-18T02:00:05.135Z,98.72
2019-02-18T02:01:05.064Z,98.53
2019-02-18T02:02:04.994Z,98.39
2019-02-18T02:03:04.926Z,98.67
2019-02-18T02:04:04.858Z,97.82
2019-02-18T02:05:04.789Z,98.67
2019-02-18T02:06:04.724Z,98.48
2019-02-18T02:07:04.654Z,98.44
2019-02-18T02:08:04.598Z,98.20
2019-02-18T02:09:04.515Z,97.87
2019-02-18T02:10:04.448Z,98.48
2019-02-18T02:11:04.380Z,99.10
2019-02-18T02:12:04.309Z,98.48
2019-02-18T02:13:04.242Z,98.86
2019-02-18T02:14:04.173Z,99.10
2019-02-18T02:15:04.106Z,98.86
2019-02-18T02:16:04.038Z,98.53
2019-02-18T02:17:03.966Z,98.53
2019-02-18T02:18:03.898Z,98.53
2019-02-18T02:19:03.829Z,98.06
2019-02-18T02:20:03.765Z,98.72
2019-02-18T02:21:03.693Z,98.58
2019-02-18T02:22:03.624Z,97.91
2019-02-18T02:23:03.556Z,98.86
2019-02-18T02:24:03.487Z,98.86
2019-02-18T02:25:03.414Z,98.96
2019-02-18T02:26:03.353Z,98.86
2019-02-18T02:27:03.285Z,98.67
2019-02-18T02:28:03.217Z,98.58
2019-02-18T02:29:03.151Z,98.39
2019-02-18T02:30:03.078Z,98.48
2019-02-18T02:31:03.018Z,98.67
2019-02-18T02:32:02.949Z,98.58
2019-02-18T02:33:02.870Z,98.48
2019-02-18T02:34:02.804Z,98.29
2019-02-18T02:35:02.736Z,98.48
2019-02-18T02:36:02.681Z,98.01
2019-02-18T02:37:02.598Z,98.96
2019-02-18T02:38:07.527Z,98.58
2019-02-18T02:39:02.474Z,98.77
2019-02-18T02:40:02.403Z,99.15
2019-02-18T02:41:02.318Z,99.33
2019-02-18T02:42:02.320Z,99.05
2019-02-18T02:43:02.188Z,99.71
2019-02-18T02:44:02.118Z,99.62
2019-02-18T02:45:02.079Z,99.80
2019-02-18T02:46:01.978Z,99.71
2019-02-18T02:47:01.909Z,99.99
2019-02-18T02:48:01.845Z,99.90
2019-02-18T02:49:01.784Z,99.99
2019-02-18T02:50:01.700Z,99.99
2019-02-18T02:51:01.653Z,99.99
2019-02-18T02:52:01.570Z,99.90
2019-02-18T02:53:01.498Z,99.90
2019-02-18T02:54:01.429Z,99.90
2019-02-18T02:55:01.381Z,99.99
2019-02-18T02:56:01.291Z,99.80
2019-02-18T02:57:01.226Z,99.90
2019-02-18T02:58:01.157Z,99.99
2019-02-18T02:59:01.102Z,99.71
2019-02-18T03:00:01.014Z,99.15
2019-02-18T03:01:00.975Z,99.62
2019-02-18T03:02:00.891Z,99.52
2019-02-18T03:03:00.811Z,99.71
2019-02-18T03:04:00.746Z,99.71
2019-02-18T03:05:00.677Z,99.99
2019-02-18T03:06:00.603Z,99.99
2019-02-18T03:07:00.546Z,99.99
2019-02-18T03:08:00.480Z,99.99
2019-02-18T03:09:00.412Z,99.99
2019-02-18T03:10:00.394Z,99.99
2019-02-18T03:11:00.265Z,99.99
2019-02-18T03:12:00.194Z,99.99
2019-02-18T03:13:00.143Z,99.99
2019-02-18T03:14:00.079Z,99.99
2019-02-18T03:14:59.991Z,99.99
2019-02-18T03:15:59.919Z,99.99
2019-02-18T03:16:59.860Z,99.99
2019-02-18T03:17:59.783Z,99.99
2019-02-18T03:18:59.715Z,99.99
2019-02-18T03:19:59.639Z,99.99
2019-02-18T03:20:59.586Z,99.99
2019-02-18T03:21:59.506Z,99.99
2019-02-18T03:22:59.437Z,99.99
2019-02-18T03:23:59.367Z,99.99
2019-02-18T03:24:59.321Z,99.99
2019-02-18T03:25:59.230Z,99.99
2019-02-18T03:26:59.157Z,99.99
2019-02-18T03:27:59.104Z,99.99
2019-02-18T03:28:59.021Z,99.99
2019-02-18T03:29:58.965Z,99.99
2019-02-18T03:30:58.929Z,99.99
2019-02-18T03:31:58.834Z,99.99
2019-02-18T03:32:58.756Z,99.99
2019-02-18T03:33:58.682Z,99.99
2019-02-18T03:35:00.545Z,99.99
2019-02-18T03:35:58.546Z,99.99
2019-02-18T03:36:58.491Z,99.99
2019-02-18T03:37:58.403Z,99.99
2019-02-18T03:38:58.339Z,99.99
2019-02-18T03:39:58.268Z,99.99
2019-02-18T03:41:03.183Z,99.99
2019-02-18T03:41:58.128Z,99.99
2019-02-18T03:42:58.069Z,99.99
2019-02-18T03:43:58.002Z,99.99
2019-02-18T03:44:57.923Z,99.99
2019-02-18T03:45:57.871Z,99.90
2019-02-18T03:46:57.789Z,99.99
2019-02-18T03:47:57.713Z,99.90
2019-02-18T03:48:57.664Z,99.62
2019-02-18T03:49:57.575Z,99.99
2019-02-18T03:50:57.515Z,99.99
2019-02-18T03:51:57.438Z,99.71
2019-02-18T03:52:57.381Z,99.99
2019-02-18T03:53:57.312Z,99.99
2019-02-18T03:54:57.240Z,99.99
2019-02-18T03:55:57.165Z,99.99
2019-02-18T03:56:57.180Z,99.99
2019-02-18T03:57:57.027Z,99.90
2019-02-18T03:58:56.978Z,99.90
2019-02-18T03:59:56.902Z,99.99
2019-02-18T04:00:56.825Z,99.99
2019-02-18T04:01:56.754Z,99.99
2019-02-18T04:02:56.692Z,99.99
2019-02-18T04:03:56.622Z,99.99
2019-02-18T04:04:56.547Z,99.99
2019-02-18T04:05:56.478Z,99.99
2019-02-18T04:06:56.408Z,99.99
2019-02-18T04:07:56.342Z,99.99
2019-02-18T04:08:56.269Z,99.99
2019-02-18T04:09:56.214Z,99.99
2019-02-18T04:10:56.134Z,99.99
2019-02-18T04:11:56.066Z,99.99
2019-02-18T04:12:55.992Z,99.99
2019-02-18T04:13:55.930Z,99.99
2019-02-18T04:14:55.859Z,99.99
2019-02-18T04:15:55.797Z,99.99
2019-02-18T04:16:55.717Z,99.99
2019-02-18T04:17:55.663Z,99.99
2019-02-18T04:18:55.583Z,99.99
2019-02-18T04:19:55.519Z,99.99
2019-02-18T04:20:55.470Z,99.99
2019-02-18T04:21:55.402Z,99.99
2019-02-18T04:22:55.329Z,99.99
2019-02-18T04:23:55.239Z,99.99
2019-02-18T04:24:55.182Z,99.99
2019-02-18T04:25:55.113Z,99.99
2019-02-18T04:26:55.037Z,99.99
2019-02-18T04:27:54.963Z,99.99
2019-02-18T04:28:54.893Z,99.99
2019-02-18T04:29:54.826Z,99.99
2019-02-18T04:30:54.767Z,99.99
2019-02-18T04:31:54.686Z,99.99
2019-02-18T04:32:54.618Z,99.99
2019-02-18T04:33:54.551Z,99.99
2019-02-18T04:34:54.490Z,99.99
2019-02-18T04:35:54.408Z,99.99
2019-02-18T04:36:54.345Z,99.99
2019-02-18T04:37:54.272Z,99.99
2019-02-18T04:38:54.548Z,99.99
2019-02-18T04:39:54.133Z,99.99
2019-02-18T04:40:54.077Z,99.99
2019-02-18T04:41:53.999Z,99.99
2019-02-18T04:42:53.966Z,99.99
2019-02-18T04:43:53.856Z,99.99
2019-02-18T04:44:53.791Z,99.99
2019-02-18T04:45:53.746Z,99.99
2019-02-18T04:46:53.653Z,99.99
2019-02-18T04:47:53.594Z,99.99
2019-02-18T04:48:53.516Z,99.99
2019-02-18T04:49:53.468Z,99.99
2019-02-18T04:50:53.386Z,99.99
2019-02-18T04:51:53.316Z,99.99
2019-02-18T04:52:53.251Z,99.99
2019-02-18T04:53:53.194Z,99.99
2019-02-18T04:54:53.102Z,99.99
2019-02-18T04:55:53.032Z,99.99
2019-02-18T04:56:52.965Z,99.99
2019-02-18T04:57:52.908Z,99.99
2019-02-18T04:58:52.827Z,99.99
2019-02-18T04:59:52.756Z,99.99
2019-02-18T05:00:52.695Z,99.99
2019-02-18T05:01:52.623Z,99.99
2019-02-18T05:02:52.549Z,99.99
2019-02-18T05:03:52.487Z,99.99
2019-02-18T05:04:52.407Z,99.99
2019-02-18T05:05:52.357Z,99.99
2019-02-18T05:06:52.272Z,99.99
2019-02-18T05:07:52.211Z,99.99
2019-02-18T05:08:52.140Z,99.99
2019-02-18T05:09:52.072Z,99.99
2019-02-18T05:10:51.994Z,99.99
2019-02-18T05:11:51.930Z,99.99
2019-02-18T05:12:51.859Z,99.99
2019-02-18T05:13:51.790Z,99.99
2019-02-18T05:14:51.723Z,99.99
2019-02-18T05:15:51.651Z,99.99
2019-02-18T05:16:51.586Z,99.99
2019-02-18T05:17:51.525Z,99.99
2019-02-18T05:18:51.449Z,99.99
2019-02-18T05:19:51.386Z,99.99
2019-02-18T05:20:51.304Z,99.99
2019-02-18T05:21:51.238Z,99.99
2019-02-18T05:22:51.183Z,99.99
2019-02-18T05:23:51.125Z,99.99
2019-02-18T05:24:51.049Z,99.99
2019-02-18T05:25:50.959Z,99.99
2019-02-18T05:26:50.894Z,99.99
2019-02-18T05:27:50.824Z,99.99
2019-02-18T05:28:50.770Z,99.99
2019-02-18T05:29:50.683Z,99.99
2019-02-18T05:30:50.617Z,99.99
2019-02-18T05:31:50.548Z,99.99
2019-02-18T05:32:50.488Z,99.99
2019-02-18T05:33:50.405Z,99.99
2019-02-18T05:34:50.344Z,99.99
2019-02-18T05:35:50.278Z,99.99
2019-02-18T05:36:50.205Z,99.99
2019-02-18T05:37:50.144Z,99.99
2019-02-18T05:38:50.064Z,99.99
2019-02-18T05:39:49.993Z,99.99
2019-02-18T05:40:49.959Z,99.99
2019-02-18T05:41:49.859Z,99.99
2019-02-18T05:42:49.790Z,99.99
2019-02-18T05:43:49.720Z,99.99
2019-02-18T05:44:49.653Z,99.99
2019-02-18T05:45:49.582Z,99.99
2019-02-18T05:46:49.510Z,99.99
2019-02-18T05:47:49.439Z,99.99
2019-02-18T05:48:49.384Z,99.99
2019-02-18T05:49:49.319Z,99.99
2019-02-18T05:50:49.296Z,99.99
2019-02-18T05:51:49.163Z,99.99
2019-02-18T05:52:49.095Z,99.99
2019-02-18T05:53:49.024Z,99.99
2019-02-18T05:54:48.960Z,99.99
2019-02-18T05:55:48.886Z,99.99
2019-02-18T05:56:48.820Z,99.99
2019-02-18T05:57:48.760Z,99.99
2019-02-18T05:58:48.690Z,99.99
2019-02-18T05:59:48.633Z,99.99
2019-02-18T06:00:48.547Z,99.99
2019-02-18T06:01:48.476Z,99.99
2019-02-18T06:02:48.409Z,99.99
2019-02-18T06:03:48.368Z,99.99
2019-02-18T06:04:48.262Z,99.99
2019-02-18T06:05:48.191Z,99.99
2019-02-18T06:06:48.136Z,99.99
2019-02-18T06:07:48.070Z,99.99
2019-02-18T06:08:48.003Z,99.99
2019-02-18T06:09:47.934Z,99.99
2019-02-18T06:10:47.848Z,99.99
2019-02-18T06:11:47.786Z,99.99
2019-02-18T06:12:47.708Z,99.99
2019-02-18T06:13:47.643Z,99.99
2019-02-18T06:14:47.580Z,99.99
2019-02-18T06:15:47.500Z,99.99
2019-02-18T06:16:47.433Z,99.99
2019-02-18T06:17:47.361Z,99.99
2019-02-18T06:18:47.295Z,99.99
2019-02-18T06:19:47.241Z,99.99
2019-02-18T06:20:47.156Z,99.99
2019-02-18T06:21:47.084Z,99.99
2019-02-18T06:22:47.021Z,99.99
2019-02-18T06:23:46.964Z,99.99
2019-02-18T06:24:46.874Z,99.99
2019-02-18T06:25:46.806Z,99.99
2019-02-18T06:26:46.742Z,99.99
2019-02-18T06:27:46.690Z,99.99
2019-02-18T06:28:46.594Z,99.99
2019-02-18T06:29:46.527Z,99.99
2019-02-18T06:30:46.460Z,99.99
2019-02-18T06:31:46.388Z,99.99
2019-02-18T06:32:46.350Z,99.99
2019-02-18T06:33:46.267Z,99.99
2019-02-18T06:34:46.185Z,99.99
2019-02-18T06:35:46.118Z,99.99
2019-02-18T06:36:46.044Z,99.99
2019-02-18T06:37:45.987Z,99.99
2019-02-18T06:38:45.906Z,99.99
2019-02-18T06:39:45.843Z,99.99
2019-02-18T06:40:45.801Z,99.99
2019-02-18T06:41:45.710Z,99.99
2019-02-18T06:42:45.629Z,99.99
2019-02-18T06:43:45.560Z,99.99
2019-02-18T06:44:45.481Z,99.99
2019-02-18T06:45:45.419Z,99.99
2019-02-18T06:46:45.349Z,99.99
2019-02-18T06:47:45.290Z,99.99
2019-02-18T06:48:45.215Z,99.99
2019-02-18T06:49:45.136Z,99.99
2019-02-18T06:50:45.070Z,99.99
2019-02-18T06:51:44.999Z,99.99
2019-02-18T06:52:44.936Z,99.99
2019-02-18T06:53:44.876Z,99.99
2019-02-18T06:54:44.825Z,99.99
2019-02-18T06:55:44.723Z,99.99
2019-02-18T06:56:44.674Z,99.99
2019-02-18T06:57:44.586Z,99.99
2019-02-18T06:58:44.517Z,99.99
2019-02-18T06:59:44.445Z,99.99
2019-02-18T07:00:44.379Z,99.99
2019-02-18T07:01:44.319Z,99.99
2019-02-18T07:02:44.246Z,99.99
2019-02-18T07:03:44.171Z,99.99
2019-02-18T07:04:44.102Z,99.99
2019-02-18T07:05:44.031Z,99.99
2019-02-18T07:06:43.972Z,99.99
2019-02-18T07:07:43.895Z,99.99
2019-02-18T07:08:43.823Z,99.99
2019-02-18T07:09:50.835Z,99.99
2019-02-18T07:10:43.689Z,99.99
2019-02-18T07:11:43.638Z,99.99
2019-02-18T07:12:43.546Z,99.99
2019-02-18T07:13:43.486Z,99.99
2019-02-18T07:14:43.420Z,99.99
2019-02-18T07:15:43.339Z,99.99
2019-02-18T07:16:43.283Z,99.99
2019-02-18T07:17:43.205Z,99.99
2019-02-18T07:18:43.135Z,99.99
2019-02-18T07:19:43.061Z,99.99
2019-02-18T07:20:42.993Z,99.99
2019-02-18T07:21:42.925Z,99.99
2019-02-18T07:22:42.858Z,99.99
2019-02-18T07:23:42.783Z,99.99
2019-02-18T07:24:42.714Z,99.99
2019-02-18T07:25:42.649Z,99.99
2019-02-18T07:26:42.582Z,99.99
2019-02-18T07:27:42.514Z,99.99
2019-02-18T07:28:42.441Z,99.99
2019-02-18T07:29:42.373Z,99.99
2019-02-18T07:30:42.309Z,99.99
2019-02-18T07:31:42.239Z,99.76
2019-02-18T07:32:42.167Z,99.85
2019-02-18T07:33:42.110Z,99.48
2019-02-18T07:34:42.028Z,99.10
2019-02-18T07:35:41.961Z,99.10
2019-02-18T07:36:41.907Z,98.63
2019-02-18T07:37:41.831Z,99.10
2019-02-18T07:38:41.753Z,98.72
2019-02-18T07:39:41.693Z,99.10
2019-02-18T07:40:41.633Z,99.19
2019-02-18T07:41:41.568Z,99.19
2019-02-18T07:42:41.478Z,98.34
2019-02-18T07:43:41.414Z,98.82
2019-02-18T07:44:41.341Z,98.72
2019-02-18T07:45:41.273Z,98.53
2019-02-18T07:46:41.201Z,98.44
2019-02-18T07:47:41.135Z,98.15
2019-02-18T07:48:41.065Z,98.34
2019-02-18T07:49:40.997Z,97.58
2019-02-18T07:50:40.929Z,97.96
2019-02-18T07:51:40.860Z,97.30
2019-02-18T07:52:40.792Z,97.20
2019-02-18T07:53:40.722Z,97.02
2019-02-18T07:54:40.672Z,96.07
2019-02-18T07:55:40.594Z,95.50
2019-02-18T07:56:40.528Z,94.65
2019-02-18T07:57:40.449Z,94.93
2019-02-18T07:58:40.382Z,94.70
2019-02-18T07:59:42.741Z,94.65
2019-02-18T08:00:40.255Z,94.89
2019-02-18T08:01:40.204Z,94.79
2019-02-18T08:02:40.112Z,94.60
2019-02-18T08:03:40.039Z,93.75
2019-02-18T08:04:39.968Z,93.27
2019-02-18T08:05:39.896Z,93.27
2019-02-18T08:06:39.835Z,92.71
2019-02-18T08:07:39.764Z,92.33
2019-02-18T08:08:39.702Z,92.33
2019-02-18T08:09:39.639Z,91.95
2019-02-18T08:10:39.561Z,92.14
2019-02-18T08:11:39.500Z,91.38
2019-02-18T08:12:39.424Z,91.38
2019-02-18T08:13:39.357Z,90.25
2019-02-18T08:14:39.298Z,90.25
2019-02-18T08:15:39.219Z,89.68
2019-02-18T08:16:39.152Z,88.82
2019-02-18T08:17:39.078Z,89.30
2019-02-18T08:18:39.016Z,89.11
2019-02-18T08:19:38.944Z,88.87
2019-02-18T08:20:38.881Z,88.11
2019-02-18T08:21:38.815Z,87.26
2019-02-18T08:22:38.742Z,86.60
2019-02-18T08:23:38.680Z,86.03
2019-02-18T08:24:38.608Z,85.74
2019-02-18T08:25:38.539Z,85.55
2019-02-18T08:26:38.470Z,84.70
2019-02-18T08:27:38.410Z,84.70
2019-02-18T08:28:38.336Z,84.04
2019-02-18T08:29:38.268Z,84.61
2019-02-18T08:30:38.207Z,83.94
2019-02-18T08:31:38.128Z,84.04
2019-02-18T08:32:38.066Z,83.37
2019-02-18T08:33:38.004Z,83.47
2019-02-18T08:34:37.927Z,83.09
2019-02-18T08:35:37.861Z,83.04
2019-02-18T08:36:37.799Z,82.28
2019-02-18T08:37:37.725Z,81.99
2019-02-18T08:38:37.655Z,80.48
2019-02-18T08:39:37.590Z,79.91
2019-02-18T08:40:37.529Z,79.15
2019-02-18T08:41:37.455Z,78.96
2019-02-18T08:42:37.386Z,79.15
2019-02-18T08:43:37.320Z,78.96
2019-02-18T08:44:37.254Z,78.77
2019-02-18T08:45:37.187Z,78.49
2019-02-18T08:46:37.123Z,78.20
2019-02-18T08:47:37.050Z,78.02
2019-02-18T08:48:36.986Z,77.83
2019-02-18T08:49:36.912Z,78.02
2019-02-18T08:50:36.848Z,77.06
2019-02-18T08:51:36.787Z,76.82
2019-02-18T08:52:36.725Z,76.78
2019-02-18T08:53:36.662Z,77.48
2019-02-18T08:54:36.583Z,76.73
2019-02-18T08:55:36.517Z,77.11
2019-02-18T08:56:36.452Z,76.25
2019-02-18T08:57:36.375Z,76.25
2019-02-18T08:58:36.311Z,75.87
2019-02-18T08:59:36.278Z,75.96
2019-02-18T09:00:36.176Z,76.34
2019-02-18T09:01:36.109Z,76.25
2019-02-18T09:02:36.041Z,75.68
2019-02-18T09:03:35.980Z,76.06
2019-02-18T09:04:35.903Z,75.31
2019-02-18T09:05:35.841Z,75.43
2019-02-18T09:06:35.775Z,74.73
2019-02-18T09:07:35.702Z,74.45
2019-02-18T09:08:35.656Z,74.30
2019-02-18T09:09:35.573Z,73.82
2019-02-18T09:10:35.516Z,73.44
2019-02-18T09:11:35.442Z,73.82
2019-02-18T09:12:35.372Z,73.63
2019-02-18T09:13:35.305Z,73.25
2019-02-18T09:14:35.239Z,72.21
2019-02-18T09:15:35.171Z,72.78
2019-02-18T09:16:35.105Z,72.40
2019-02-18T09:17:35.040Z,71.73
2019-02-18T09:18:34.975Z,71.55
2019-02-18T09:19:34.906Z,71.67
2019-02-18T09:20:34.845Z,71.20
2019-02-18T09:21:34.780Z,71.01
2019-02-18T09:22:34.707Z,70.15
2019-02-18T09:23:34.639Z,69.30
2019-02-18T09:24:34.573Z,69.21
2019-02-18T09:25:34.507Z,68.64
2019-02-18T09:26:34.451Z,68.73
2019-02-18T09:27:34.378Z,69.02
2019-02-18T09:28:34.311Z,68.16
2019-02-18T09:29:34.241Z,67.88
2019-02-18T09:30:34.178Z,68.26
2019-02-18T09:31:34.110Z,67.59
2019-02-18T09:32:34.043Z,67.69
2019-02-18T09:33:33.978Z,67.40
2019-02-18T09:34:33.908Z,67.50
2019-02-18T09:35:33.851Z,66.96
2019-02-18T09:36:33.777Z,66.58
2019-02-18T09:37:33.728Z,65.92
2019-02-18T09:38:33.647Z,65.35
2019-02-18T09:39:33.581Z,64.30
2019-02-18T09:40:43.982Z,63.35
2019-02-18T09:41:33.458Z,62.40
2019-02-18T09:42:33.383Z,61.55
2019-02-18T09:43:33.313Z,61.74
2019-02-18T09:44:33.253Z,61.68
2019-02-18T09:45:33.186Z,61.77
2019-02-18T09:46:33.119Z,60.44
2019-02-18T09:47:33.055Z,60.72
2019-02-18T09:48:32.989Z,60.82
2019-02-18T09:49:32.921Z,60.63
2019-02-18T09:50:32.865Z,60.53
2019-02-18T09:51:32.801Z,59.96
2019-02-18T09:52:32.724Z,59.39
2019-02-18T09:53:32.657Z,59.11
2019-02-18T09:54:32.597Z,59.30
2019-02-18T09:55:32.527Z,58.25
2019-02-18T09:56:32.464Z,57.50
2019-02-18T09:57:32.404Z,57.30
2019-02-18T09:58:32.336Z,57.97
2019-02-18T09:59:32.273Z,57.59
2019-02-18T10:00:32.199Z,57.30
2019-02-18T10:01:32.134Z,56.83
2019-02-18T10:02:32.069Z,55.97
2019-02-18T10:03:32.450Z,56.00
2019-02-18T10:04:31.938Z,56.16
2019-02-18T10:05:31.873Z,56.10
2019-02-18T10:06:31.809Z,55.90
2019-02-18T10:07:31.738Z,56.19
2019-02-18T10:08:31.675Z,56.57
2019-02-18T10:09:31.621Z,56.29
2019-02-18T10:10:31.554Z,55.52
2019-02-18T10:11:31.479Z,55.62
2019-02-18T10:12:31.454Z,55.15
2019-02-18T10:13:31.355Z,54.77
2019-02-18T10:14:31.290Z,54.57
2019-02-18T10:15:31.225Z,54.19
2019-02-18T10:16:31.158Z,54.38
2019-02-18T10:17:31.092Z,53.63
2019-02-18T10:18:31.025Z,53.91
2019-02-18T10:19:30.956Z,54.03
2019-02-18T10:20:30.895Z,53.84
2019-02-18T10:21:30.830Z,52.98
2019-02-18T10:22:30.768Z,52.61
2019-02-18T10:23:30.700Z,52.89
2019-02-18T10:24:30.632Z,53.75
2019-02-18T10:25:30.568Z,53.75
2019-02-18T10:26:30.526Z,53.36
2019-02-18T10:27:30.437Z,54.13
2019-02-18T10:28:30.388Z,53.94
2019-02-18T10:29:30.309Z,54.03
2019-02-18T10:30:30.244Z,53.84
2019-02-18T10:31:30.179Z,53.46
2019-02-18T10:32:30.117Z,52.80
2019-02-18T10:33:30.053Z,52.53
2019-02-18T10:34:29.981Z,52.92
2019-02-18T10:35:29.937Z,53.49
2019-02-18T10:36:29.859Z,53.87
2019-02-18T10:37:29.789Z,53.67
2019-02-18T10:38:29.738Z,52.53
2019-02-18T10:39:29.658Z,52.82
2019-02-18T10:40:29.597Z,52.98
2019-02-18T10:41:29.534Z,52.72
2019-02-18T10:42:29.470Z,52.61
2019-02-18T10:43:32.342Z,51.93
2019-02-18T10:44:29.333Z,51.65
2019-02-18T10:45:29.275Z,50.92
2019-02-18T10:46:29.216Z,51.18
2019-02-18T10:47:29.141Z,51.68
2019-02-18T10:48:29.077Z,51.37
2019-02-18T10:49:29.012Z,51.58
2019-02-18T10:50:28.949Z,51.93
2019-02-18T10:51:28.884Z,51.78
2019-02-18T10:52:28.817Z,51.39
2019-02-18T10:53:28.757Z,51.49
2019-02-18T10:54:28.693Z,51.78
2019-02-18T10:55:28.626Z,51.39
2019-02-18T10:56:28.558Z,51.68
2019-02-18T10:57:28.495Z,51.01
2019-02-18T10:58:28.431Z,50.63
2019-02-18T10:59:28.363Z,50.63
2019-02-18T11:00:28.302Z,50.63
2019-02-18T11:01:28.236Z,50.15
2019-02-18T11:02:28.173Z,50.54
2019-02-18T11:03:28.124Z,49.87
2019-02-18T11:04:28.043Z,49.96
2019-02-18T11:05:27.978Z,50.15
2019-02-18T11:06:27.911Z,49.99
2019-02-18T11:07:27.849Z,49.61
2019-02-18T11:08:27.784Z,49.71
2019-02-18T11:09:27.721Z,49.61
2019-02-18T11:10:27.654Z,49.90
2019-02-18T11:11:27.595Z,49.80
2019-02-18T11:12:27.525Z,49.61
2019-02-18T11:13:27.472Z,49.42
2019-02-18T11:14:27.403Z,49.32
2019-02-18T11:15:27.333Z,49.32
2019-02-18T11:16:27.268Z,49.51
2019-02-18T11:17:27.201Z,49.71
2019-02-18T11:18:27.157Z,49.80
2019-02-18T11:19:27.075Z,49.90
2019-02-18T11:20:27.013Z,49.42
2019-02-18T11:21:26.948Z,48.56
2019-02-18T11:22:26.882Z,48.47
2019-02-18T11:23:26.820Z,48.27
2019-02-18T11:24:26.762Z,48.21
2019-02-18T11:25:26.698Z,48.11
2019-02-18T11:26:26.638Z,48.21
2019-02-18T11:27:26.558Z,48.11
2019-02-18T11:28:26.501Z,48.21
2019-02-18T11:29:26.435Z,47.82
2019-02-18T11:30:26.369Z,47.82
2019-02-18T11:31:26.304Z,47.44
2019-02-18T11:32:26.240Z,47.92
2019-02-18T11:33:26.182Z,48.30
2019-02-18T11:34:26.114Z,48.58
2019-02-18T11:35:26.049Z,47.94
2019-02-18T11:36:25.989Z,47.75
2019-02-18T11:37:25.923Z,47.66
2019-02-18T11:38:25.858Z,47.66
2019-02-18T11:39:25.798Z,47.47
2019-02-18T11:40:25.729Z,47.56
2019-02-18T11:41:27.641Z,47.56
2019-02-18T11:42:25.603Z,47.56
2019-02-18T11:43:25.537Z,47.47
2019-02-18T11:44:25.474Z,47.56
2019-02-18T11:45:25.413Z,47.66
2019-02-18T11:46:25.346Z,47.56
2019-02-18T11:47:25.281Z,47.47
2019-02-18T11:48:25.219Z,47.75
2019-02-18T11:49:25.175Z,47.66
2019-02-18T11:50:25.099Z,47.66
2019-02-18T11:51:25.027Z,47.56
2019-02-18T11:52:24.965Z,47.56
2019-02-18T11:53:24.901Z,46.82
2019-02-18T11:54:24.835Z,46.54
2019-02-18T11:55:24.773Z,46.73
2019-02-18T11:56:24.709Z,46.73
2019-02-18T11:57:24.646Z,47.11
2019-02-18T11:58:24.582Z,46.82
2019-02-18T11:59:24.739Z,47.58
2019-02-18T12:00:24.453Z,48.16
2019-02-18T12:01:24.391Z,48.83
2019-02-18T12:02:24.326Z,48.63
2019-02-18T12:03:24.263Z,48.73
2019-02-18T12:04:24.197Z,47.78
2019-02-18T12:05:24.136Z,47.39
2019-02-18T12:06:24.071Z,47.68
2019-02-18T12:07:24.007Z,47.68
2019-02-18T12:08:23.958Z,46.82
2019-02-18T12:09:23.884Z,46.44
2019-02-18T12:10:23.818Z,46.82
2019-02-18T12:11:23.754Z,46.82
2019-02-18T12:12:23.690Z,47.58
2019-02-18T12:13:23.628Z,46.82
2019-02-18T12:14:23.562Z,46.82
2019-02-18T12:15:23.500Z,47.11
2019-02-18T12:16:23.440Z,46.63
2019-02-18T12:17:23.371Z,47.02
2019-02-18T12:18:23.306Z,47.68
2019-02-18T12:19:23.246Z,47.20
2019-02-18T12:20:23.181Z,47.11
2019-02-18T12:21:23.120Z,46.44
2019-02-18T12:22:23.054Z,46.06
2019-02-18T12:23:22.991Z,45.78
2019-02-18T12:24:22.927Z,46.63
2019-02-18T12:25:22.864Z,46.25
2019-02-18T12:26:22.803Z,46.25
2019-02-18T12:27:22.737Z,46.15
2019-02-18T12:28:22.672Z,45.29
2019-02-18T12:29:26.591Z,44.82
2019-02-18T12:30:22.543Z,44.25
2019-02-18T12:31:22.561Z,44.08
2019-02-18T12:32:22.422Z,43.51
2019-02-18T12:33:22.357Z,41.98
2019-02-18T12:34:22.295Z,41.31
2019-02-18T12:35:31.009Z,40.93
2019-02-18T12:36:22.165Z,41.03
2019-02-18T12:37:22.102Z,40.74
2019-02-18T12:38:22.039Z,39.98
2019-02-18T12:39:22.775Z,40.07
2019-02-18T12:40:21.911Z,40.74
2019-02-18T12:41:21.851Z,40.55
2019-02-18T12:42:21.787Z,41.03
2019-02-18T12:43:21.721Z,40.93
2019-02-18T12:44:21.658Z,41.31
2019-02-18T12:45:21.593Z,41.88
2019-02-18T12:46:21.531Z,41.05
2019-02-18T12:47:21.481Z,40.76
2019-02-18T12:48:21.403Z,41.62
2019-02-18T12:49:21.339Z,42.00
2019-02-18T12:50:21.277Z,42.96
2019-02-18T12:51:21.228Z,42.00